createdAt,value
2022-09-07T00:01:15.488Z,9.18
2022-09-07T00:03:44.250Z,10.18
2022-09-07T00:06:15.203Z,11.38
2022-09-07T00:08:45.241Z,8.32
2022-09-07T00:11:16.238Z,9.90
2022-09-07T00:13:46.348Z,9.38
2022-09-07T00:16:18.496Z,9.45
2022-09-07T00:18:47.212Z,10.07
2022-09-07T00:21:17.308Z,12.38
2022-09-07T00:23:46.126Z,11.63
2022-09-07T00:26:18.335Z,8.57
2022-09-07T00:28:46.929Z,9.73
2022-09-07T00:31:18.496Z,9.77
2022-09-07T00:33:48.326Z,9.18
2022-09-07T00:36:16.698Z,9.35
2022-09-07T00:38:44.916Z,9.93
2022-09-07T00:41:13.707Z,8.55
2022-09-07T00:43:48.012Z,7.22
2022-09-07T00:46:18.755Z,9.18
2022-09-07T00:49:00.676Z,9.73
2022-09-07T00:51:34.424Z,8.77
2022-09-07T00:54:07.228Z,10.18
2022-09-07T00:56:40.466Z,12.75
2022-09-07T00:59:09.425Z,10.07
2022-09-07T01:01:40.224Z,11.75
2022-09-07T01:04:08.964Z,9.90
2022-09-07T01:06:39.547Z,13.23
2022-09-07T01:09:16.021Z,10.20
2022-09-07T01:11:46.044Z,10.05
2022-09-07T01:14:16.707Z,9.40
2022-09-07T01:17:04.584Z,9.23
2022-09-07T01:20:05.516Z,8.95
2022-09-07T01:23:09.088Z,8.93
2022-09-07T01:28:20.302Z,8.38
2022-09-07T01:30:56.785Z,7.75
2022-09-07T01:33:40.059Z,7.57
2022-09-07T01:36:19.874Z,5.40
2022-09-07T01:38:52.315Z,6.07
2022-09-07T01:41:28.398Z,6.68
2022-09-07T01:44:04.317Z,5.00
2022-09-07T01:46:38.520Z,4.05
2022-09-07T01:49:13.126Z,5.63
2022-09-07T01:51:47.072Z,7.18
2022-09-07T01:54:22.498Z,5.55
2022-09-07T01:56:57.401Z,6.40
2022-09-07T01:59:31.804Z,5.25
2022-09-07T02:02:05.861Z,5.20
2022-09-07T02:04:47.284Z,5.47
2022-09-07T02:07:23.641Z,5.43
2022-09-07T02:09:55.845Z,4.43
2022-09-07T02:12:27.938Z,6.05
2022-09-07T02:15:03.407Z,4.78
2022-09-07T02:17:34.936Z,5.97
2022-09-07T02:20:09.778Z,3.63
2022-09-07T02:22:43.696Z,4.70
2022-09-07T02:25:16.154Z,6.32
2022-09-07T02:27:56.153Z,4.05
2022-09-07T02:30:26.056Z,5.22
2022-09-07T02:32:54.166Z,4.85
2022-09-07T02:35:22.325Z,8.10
2022-09-07T02:37:52.945Z,4.47
2022-09-07T02:40:21.169Z,5.38
2022-09-07T02:42:50.173Z,7.53
2022-09-07T02:45:21.273Z,6.20
2022-09-07T02:48:08.397Z,4.65
2022-09-07T02:50:49.025Z,3.80
2022-09-07T02:53:38.416Z,5.95
2022-09-07T02:56:15.767Z,4.53
2022-09-07T02:58:51.715Z,5.82
2022-09-07T03:01:40.359Z,5.35
2022-09-07T03:04:17.514Z,6.47
2022-09-07T03:06:52.538Z,3.88
2022-09-07T03:09:28.999Z,3.75
2022-09-07T03:11:59.123Z,5.47
2022-09-07T03:14:30.327Z,3.10
2022-09-07T03:16:58.724Z,4.90
2022-09-07T03:19:28.488Z,5.05
2022-09-07T03:21:56.765Z,6.50
2022-09-07T03:24:24.977Z,5.20
2022-09-07T03:26:53.234Z,6.95
2022-09-07T03:29:21.408Z,4.75
2022-09-07T03:31:49.650Z,5.00
2022-09-07T03:34:18.135Z,7.30
2022-09-07T03:36:47.531Z,6.28
2022-09-07T03:39:15.589Z,5.88
2022-09-07T03:41:44.058Z,6.00
2022-09-07T03:44:14.962Z,5.35
2022-09-07T03:46:44.269Z,5.47
2022-09-07T03:49:12.492Z,6.30
2022-09-07T03:51:43.031Z,5.70
2022-09-07T03:54:12.662Z,5.47
2022-09-07T03:56:40.630Z,7.10
2022-09-07T03:59:08.826Z,5.38
2022-09-07T04:01:39.683Z,5.90
2022-09-07T04:04:13.182Z,6.43
2022-09-07T04:06:41.479Z,6.72
2022-09-07T04:09:14.332Z,7.55
2022-09-07T04:14:12.337Z,7.38
2022-09-07T04:16:40.520Z,5.93
2022-09-07T04:19:08.725Z,9.55
2022-09-07T04:21:36.806Z,7.60
2022-09-07T04:24:05.003Z,8.13
2022-09-07T04:26:37.147Z,6.32
2022-09-07T04:29:06.461Z,7.88
2022-09-07T04:31:35.501Z,8.00
2022-09-07T04:34:03.864Z,7.55
2022-09-07T04:36:31.997Z,8.95
2022-09-07T04:39:02.174Z,9.02
2022-09-07T04:41:32.401Z,13.05
2022-09-07T04:44:03.684Z,12.43
2022-09-07T04:46:34.697Z,12.65
2022-09-07T04:49:05.247Z,12.10
2022-09-07T04:51:34.153Z,12.93
2022-09-07T04:54:03.934Z,12.80
2022-09-07T04:56:32.854Z,14.07
2022-09-07T04:59:04.248Z,14.77
2022-09-07T05:01:33.166Z,15.43
2022-09-07T05:04:02.347Z,14.48
2022-09-07T05:06:30.782Z,15.98
2022-09-07T05:09:00.597Z,15.48
2022-09-07T05:11:30.110Z,16.00
2022-09-07T05:13:59.919Z,18.60
2022-09-07T05:16:32.134Z,21.55
2022-09-07T05:19:05.574Z,16.98
2022-09-07T05:21:34.883Z,16.58
2022-09-07T05:24:04.422Z,16.40
2022-09-07T05:26:34.088Z,17.77
2022-09-07T05:31:58.933Z,15.98
2022-09-07T05:37:00.107Z,21.17
2022-09-07T05:39:28.898Z,16.70
2022-09-07T05:41:57.047Z,17.35
2022-09-07T05:47:15.711Z,18.70
2022-09-07T05:49:44.186Z,21.33
2022-09-07T05:52:12.186Z,21.42
2022-09-07T05:54:40.453Z,20.80
2022-09-07T05:57:09.004Z,19.35
2022-09-07T05:59:39.952Z,22.02
2022-09-07T06:02:08.596Z,19.30
2022-09-07T06:04:39.284Z,21.35
2022-09-07T06:07:21.728Z,21.50
2022-09-07T06:12:39.219Z,22.15
2022-09-07T06:15:08.470Z,23.50
2022-09-07T06:17:36.499Z,22.48
2022-09-07T06:20:07.374Z,26.83
2022-09-07T06:22:37.472Z,27.10
2022-09-07T06:25:06.173Z,20.63
2022-09-07T06:27:36.824Z,22.83
2022-09-07T06:30:05.678Z,22.42
2022-09-07T06:32:44.639Z,22.00
2022-09-07T06:35:15.706Z,22.73
2022-09-07T06:37:44.641Z,22.90
2022-09-07T06:40:14.042Z,23.48
2022-09-07T06:42:44.849Z,22.42
2022-09-07T06:45:15.510Z,22.70
2022-09-07T06:47:43.659Z,22.02
2022-09-07T06:50:13.789Z,24.88
2022-09-07T06:55:31.506Z,24.33
2022-09-07T06:57:59.506Z,22.42
2022-09-07T07:00:27.566Z,21.55
2022-09-07T07:02:55.685Z,22.95
2022-09-07T07:05:23.753Z,22.45
2022-09-07T07:07:53.151Z,22.80
2022-09-07T07:10:24.945Z,22.33
2022-09-07T07:12:57.559Z,25.50
2022-09-07T07:15:29.435Z,23.23
2022-09-07T07:18:02.673Z,22.92
2022-09-07T07:20:38.565Z,23.48
2022-09-07T07:23:09.185Z,23.05
2022-09-07T07:25:39.168Z,27.05
2022-09-07T07:30:56.750Z,22.92
2022-09-07T07:33:31.970Z,23.63
2022-09-07T07:36:11.684Z,24.85
2022-09-07T07:38:59.299Z,26.00
2022-09-07T07:44:19.906Z,23.60
2022-09-07T07:46:49.321Z,22.33
2022-09-07T07:49:17.433Z,24.35
2022-09-07T07:54:37.147Z,23.73
2022-09-07T07:57:06.399Z,24.38
2022-09-07T07:59:34.475Z,22.85
2022-09-07T08:02:07.881Z,22.27
2022-09-07T08:04:38.846Z,26.63
2022-09-07T08:07:11.290Z,24.25
2022-09-07T08:09:42.114Z,26.08
2022-09-07T08:12:12.282Z,21.75
2022-09-07T08:14:42.193Z,22.05
2022-09-07T08:17:11.125Z,20.83
2022-09-07T08:19:39.464Z,22.52
2022-09-07T08:22:08.601Z,21.15
2022-09-07T08:24:36.661Z,22.65
2022-09-07T08:27:06.734Z,21.50
2022-09-07T08:29:35.565Z,20.70
2022-09-07T08:32:06.614Z,22.27
2022-09-07T08:34:37.329Z,20.33
2022-09-07T08:37:05.363Z,20.90
2022-09-07T08:39:33.457Z,19.30
2022-09-07T08:42:22.849Z,19.63
2022-09-07T08:44:56.316Z,18.95
2022-09-07T08:47:38.199Z,23.35
2022-09-07T08:50:12.429Z,20.05
2022-09-07T08:52:48.523Z,19.38
2022-09-07T08:55:25.506Z,22.25
2022-09-07T08:58:06.312Z,19.85
2022-09-07T09:00:36.100Z,22.40
2022-09-07T09:06:03.130Z,22.52
2022-09-07T09:08:45.769Z,19.35
2022-09-07T09:11:21.544Z,23.42
2022-09-07T09:14:03.244Z,19.92
2022-09-07T09:16:36.982Z,20.55
2022-09-07T09:19:19.496Z,19.63
2022-09-07T09:21:48.108Z,20.50
2022-09-07T09:24:19.329Z,19.50
2022-09-07T09:26:52.812Z,19.40
2022-09-07T09:29:24.757Z,19.23
2022-09-07T09:31:53.596Z,19.53
2022-09-07T09:34:23.969Z,20.70
2022-09-07T09:36:56.967Z,21.38
2022-09-07T09:39:31.041Z,21.75
2022-09-07T09:42:02.897Z,19.65
2022-09-07T09:44:37.591Z,21.00
2022-09-07T09:49:55.180Z,17.30
2022-09-07T09:52:30.211Z,18.13
2022-09-07T09:55:23.211Z,16.88
2022-09-07T10:04:01.004Z,16.50
2022-09-07T10:06:30.958Z,18.35
2022-09-07T10:09:02.572Z,14.38
2022-09-07T10:14:36.262Z,17.55
2022-09-07T10:17:15.227Z,14.57
2022-09-07T10:19:44.319Z,13.70
2022-09-07T10:22:26.078Z,13.48
2022-09-07T10:24:54.140Z,11.80
2022-09-07T10:27:31.585Z,13.05
2022-09-07T10:29:59.919Z,14.75
2022-09-07T10:32:41.144Z,13.55
2022-09-07T10:35:17.161Z,13.77
2022-09-07T10:37:54.094Z,14.98
2022-09-07T10:40:31.780Z,14.90
2022-09-07T10:43:27.063Z,17.48
2022-09-07T10:46:12.980Z,14.07
2022-09-07T10:48:52.273Z,13.73
2022-09-07T10:51:30.667Z,11.80
2022-09-07T10:57:07.211Z,13.02
2022-09-07T11:03:24.780Z,12.60
2022-09-07T11:05:46.084Z,12.85
2022-09-07T11:08:34.476Z,12.07
2022-09-07T11:14:19.410Z,10.05
2022-09-07T11:16:53.289Z,9.13
2022-09-07T11:19:35.936Z,9.43
2022-09-07T11:22:17.113Z,10.60
2022-09-07T11:27:44.541Z,8.85
2022-09-07T11:30:20.899Z,9.65
2022-09-07T11:33:00.857Z,8.85
2022-09-07T11:35:38.382Z,10.30
2022-09-07T11:38:15.342Z,8.55
2022-09-07T11:40:56.338Z,8.63
2022-09-07T11:43:29.726Z,7.72
2022-09-07T11:46:04.997Z,10.73
2022-09-07T11:48:37.843Z,9.20
2022-09-07T11:51:11.794Z,8.40
2022-09-07T11:53:46.482Z,7.30
2022-09-07T11:56:21.646Z,8.77
2022-09-07T11:59:28.067Z,9.18
2022-09-07T12:02:13.955Z,8.60
2022-09-07T12:04:58.406Z,8.18
2022-09-07T12:07:49.336Z,7.25
2022-09-07T12:10:50.853Z,8.27
2022-09-07T12:13:51.188Z,7.53
2022-09-07T12:16:26.073Z,6.28
2022-09-07T12:19:13.223Z,7.70
2022-09-07T12:21:43.699Z,7.22
2022-09-07T12:24:41.002Z,7.85
2022-09-07T12:27:33.328Z,6.25
2022-09-07T12:30:51.700Z,6.80
2022-09-07T12:33:28.773Z,7.43
2022-09-07T12:35:59.235Z,8.02
2022-09-07T12:39:07.217Z,7.20
2022-09-07T12:44:43.917Z,7.05
2022-09-07T12:47:29.474Z,6.13
2022-09-07T12:50:21.672Z,9.07
2022-09-07T12:53:08.474Z,8.37
2022-09-07T12:58:50.410Z,6.28
2022-09-07T13:01:31.991Z,6.60
2022-09-07T13:04:38.349Z,7.75
2022-09-07T13:07:25.702Z,8.25
2022-09-07T13:09:58.558Z,4.70
2022-09-07T13:15:35.744Z,5.60
2022-09-07T13:18:05.476Z,7.63
2022-09-07T13:20:39.085Z,9.00
2022-09-07T13:23:23.360Z,6.75
2022-09-07T13:25:54.491Z,6.72
2022-09-07T13:28:28.431Z,4.95
2022-09-07T13:31:39.020Z,5.22
2022-09-07T13:34:37.537Z,6.93
2022-09-07T13:37:07.531Z,6.45
2022-09-07T13:39:42.623Z,5.55
2022-09-07T13:42:17.492Z,6.18
2022-09-07T13:44:54.350Z,5.20
2022-09-07T13:47:34.620Z,6.80
2022-09-07T13:50:16.798Z,8.48
2022-09-07T13:53:00.671Z,7.07
2022-09-07T13:55:35.231Z,6.95
2022-09-07T13:58:15.549Z,9.07
2022-09-07T14:00:55.416Z,6.95
2022-09-07T14:03:26.680Z,7.88
2022-09-07T14:06:28.372Z,8.27
2022-09-07T14:08:58.009Z,7.00
2022-09-07T14:11:29.954Z,8.25
2022-09-07T14:14:08.500Z,7.20
2022-09-07T14:16:37.424Z,6.43
2022-09-07T14:19:11.924Z,5.10
2022-09-07T14:21:41.737Z,7.72
2022-09-07T14:24:21.633Z,5.68
2022-09-07T14:26:50.974Z,7.28
2022-09-07T14:29:29.966Z,5.32
2022-09-07T14:31:59.721Z,5.90
2022-09-07T14:34:31.341Z,7.22
2022-09-07T14:37:06.055Z,6.73
2022-09-07T14:39:40.103Z,5.78
2022-09-07T14:42:11.584Z,6.70
2022-09-07T14:44:43.082Z,5.22
2022-09-07T14:47:24.721Z,5.53
2022-09-07T14:49:55.652Z,5.30
2022-09-07T14:52:32.759Z,8.73
2022-09-07T14:55:04.011Z,5.22
2022-09-07T14:57:33.144Z,5.95
2022-09-07T15:00:20.612Z,5.70
2022-09-07T15:02:48.937Z,4.68
2022-09-07T15:05:29.032Z,7.47
2022-09-07T15:07:59.949Z,8.23
2022-09-07T15:10:32.134Z,7.97
2022-09-07T15:13:01.753Z,7.50
2022-09-07T15:15:32.793Z,5.15
2022-09-07T15:18:07.771Z,7.07
2022-09-07T15:20:39.789Z,4.30
2022-09-07T15:23:13.189Z,5.90
2022-09-07T15:25:45.450Z,5.25
2022-09-07T15:34:01.568Z,5.22
2022-09-07T15:36:32.090Z,5.38
2022-09-07T15:39:03.281Z,5.72
2022-09-07T15:41:32.057Z,4.97
2022-09-07T15:44:00.234Z,5.90
2022-09-07T15:46:28.614Z,6.55
2022-09-07T15:48:57.219Z,7.13
2022-09-07T15:54:16.640Z,6.88
2022-09-07T15:57:48.280Z,4.82
2022-09-07T15:59:32.997Z,4.65
2022-09-07T16:02:01.615Z,9.38
2022-09-07T16:04:30.200Z,7.07
2022-09-07T16:07:01.501Z,4.68
2022-09-07T16:09:31.194Z,7.00
2022-09-07T16:13:00.074Z,6.95
2022-09-07T16:14:47.221Z,7.35
2022-09-07T16:20:04.763Z,4.55
2022-09-07T16:25:23.792Z,8.13
2022-09-07T16:27:51.746Z,5.55
2022-09-07T16:30:22.205Z,5.13
2022-09-07T16:32:50.955Z,5.18
2022-09-07T16:35:18.909Z,6.38
2022-09-07T16:40:41.576Z,6.60
2022-09-07T16:43:09.906Z,5.55
2022-09-07T16:48:26.121Z,5.13
2022-09-07T16:51:01.266Z,4.35
2022-09-07T16:53:31.011Z,4.93
2022-09-07T16:56:03.334Z,5.80
2022-09-07T16:58:35.990Z,5.57
2022-09-07T17:01:05.021Z,5.38
2022-09-07T17:03:33.997Z,6.07
2022-09-07T17:06:02.455Z,6.38
2022-09-07T17:08:30.860Z,4.90
2022-09-07T17:11:05.060Z,7.60
2022-09-07T17:13:33.437Z,5.60
2022-09-07T17:16:05.144Z,6.80
2022-09-07T17:21:21.890Z,3.35
2022-09-07T17:23:55.223Z,6.95
2022-09-07T17:26:27.619Z,5.15
2022-09-07T17:29:00.224Z,6.10
2022-09-07T17:34:19.538Z,4.75
2022-09-07T17:36:47.689Z,5.80
2022-09-07T17:39:18.215Z,5.47
2022-09-07T17:41:52.600Z,6.18
2022-09-07T17:44:21.416Z,7.07
2022-09-07T17:46:49.579Z,5.15
2022-09-07T17:49:17.846Z,5.10
2022-09-07T17:51:46.812Z,8.60
2022-09-07T17:54:17.693Z,6.35
2022-09-07T17:56:46.905Z,4.47
2022-09-07T18:02:04.305Z,3.90
2022-09-07T18:04:32.263Z,4.70
2022-09-07T18:07:00.307Z,5.65
2022-09-07T18:09:28.302Z,8.60
2022-09-07T18:11:56.314Z,5.25
2022-09-07T18:14:25.614Z,7.22
2022-09-07T18:16:53.777Z,7.22
2022-09-07T18:19:21.767Z,4.03
2022-09-07T18:21:50.589Z,5.40
2022-09-07T18:24:22.186Z,5.70
2022-09-07T18:26:52.678Z,5.30
2022-09-07T18:29:32.853Z,5.90
2022-09-07T18:32:05.511Z,4.40
2022-09-07T18:34:36.670Z,4.63
2022-09-07T18:37:05.108Z,4.78
2022-09-07T18:39:33.556Z,6.78
2022-09-07T18:42:01.842Z,7.70
2022-09-07T18:47:27.494Z,5.78
2022-09-07T18:49:56.378Z,4.47
2022-09-07T18:55:13.666Z,4.90
2022-09-07T18:57:41.788Z,5.65
2022-09-07T19:00:17.629Z,8.45
2022-09-07T19:02:50.590Z,4.97
2022-09-07T19:08:08.536Z,5.18
2022-09-07T19:10:38.135Z,5.50
2022-09-07T19:13:06.110Z,5.75
2022-09-07T19:15:38.048Z,5.03
2022-09-07T19:18:09.033Z,5.55
2022-09-07T19:20:37.656Z,5.40
2022-09-07T19:23:06.569Z,5.15
2022-09-07T19:25:34.822Z,9.05
2022-09-07T19:28:03.011Z,6.38
2022-09-07T19:30:30.951Z,8.60
2022-09-07T19:33:03.920Z,11.38
2022-09-07T19:35:37.281Z,12.60
2022-09-07T19:38:05.677Z,12.48
2022-09-07T19:40:33.734Z,13.98
2022-09-07T19:43:01.797Z,12.23
2022-09-07T19:45:29.873Z,10.57
2022-09-07T19:47:57.974Z,13.85
2022-09-07T19:50:26.100Z,10.30
2022-09-07T19:52:55.544Z,14.50
2022-09-07T19:55:24.525Z,10.70
2022-09-07T19:57:52.623Z,12.18
2022-09-07T20:00:20.609Z,11.32
2022-09-07T20:02:50.069Z,10.30
2022-09-07T20:05:18.410Z,11.25
2022-09-07T20:07:46.474Z,10.70
2022-09-07T20:10:16.085Z,10.95
2022-09-07T20:12:44.123Z,8.32
2022-09-07T20:15:12.365Z,11.10
2022-09-07T20:17:40.326Z,9.93
2022-09-07T20:20:09.692Z,8.48
2022-09-07T20:22:37.740Z,9.63
2022-09-07T20:25:10.191Z,9.93
2022-09-07T20:27:42.098Z,8.80
2022-09-07T20:30:11.189Z,7.55
2022-09-07T20:32:39.450Z,11.63
2022-09-07T20:35:08.025Z,9.40
2022-09-07T20:37:36.080Z,8.95
2022-09-07T20:40:06.580Z,7.03
2022-09-07T20:42:34.617Z,7.57
2022-09-07T20:45:04.199Z,6.03
2022-09-07T20:47:32.217Z,7.75
2022-09-07T20:50:00.206Z,8.23
2022-09-07T20:52:28.301Z,8.13
2022-09-07T20:54:56.353Z,7.65
2022-09-07T20:57:24.784Z,7.03
2022-09-07T20:59:52.809Z,9.13
2022-09-07T21:02:22.277Z,9.77
2022-09-07T21:04:50.316Z,6.50
2022-09-07T21:07:18.316Z,6.60
2022-09-07T21:09:46.747Z,4.50
2022-09-07T21:12:14.799Z,6.72
2022-09-07T21:14:42.875Z,5.72
2022-09-07T21:17:10.833Z,7.28
2022-09-07T21:19:40.344Z,6.78
2022-09-07T21:22:08.330Z,7.60
2022-09-07T21:24:36.272Z,5.88
2022-09-07T21:27:04.383Z,8.68
2022-09-07T21:29:32.781Z,9.40
2022-09-07T21:32:00.939Z,7.63
2022-09-07T21:34:28.985Z,9.18
2022-09-07T21:36:58.390Z,7.68
2022-09-07T21:39:26.344Z,6.97
2022-09-07T21:41:54.329Z,8.52
2022-09-07T21:44:22.486Z,8.57
2022-09-07T21:46:51.230Z,7.50
2022-09-07T21:49:19.222Z,5.70
2022-09-07T21:51:47.224Z,7.65
2022-09-07T21:54:16.582Z,6.00
2022-09-07T21:56:46.719Z,6.97
2022-09-07T21:59:15.454Z,6.25
2022-09-07T22:01:43.558Z,6.18
2022-09-07T22:04:12.117Z,15.18
2022-09-07T22:06:41.100Z,10.68
2022-09-07T22:09:09.111Z,10.07
2022-09-07T22:11:39.308Z,7.03
2022-09-07T22:14:09.355Z,7.13
2022-09-07T22:16:37.494Z,7.97
2022-09-07T22:19:06.545Z,7.15
2022-09-07T22:21:35.107Z,7.57
2022-09-07T22:24:05.953Z,7.40
2022-09-07T22:26:37.637Z,7.03
2022-09-07T22:29:08.977Z,10.30
2022-09-07T22:31:39.030Z,9.60
2022-09-07T22:34:09.379Z,8.82
2022-09-07T22:36:40.160Z,7.50
2022-09-07T22:39:11.620Z,9.73
2022-09-07T22:41:40.831Z,9.32
2022-09-07T22:44:12.843Z,9.18
2022-09-07T22:46:42.762Z,6.87
2022-09-07T22:49:12.628Z,9.00
2022-09-07T22:51:40.715Z,9.68
2022-09-07T22:54:09.072Z,8.82
2022-09-07T22:56:38.398Z,10.40
2022-09-07T22:59:08.857Z,10.57
2022-09-07T23:01:39.134Z,7.75
2022-09-07T23:04:08.723Z,10.70
2022-09-07T23:06:39.392Z,14.40
2022-09-07T23:09:09.044Z,12.30
2022-09-07T23:11:37.285Z,12.77
2022-09-07T23:14:08.498Z,11.48
2022-09-07T23:16:38.145Z,9.10
2022-09-07T23:19:06.905Z,11.70
2022-09-07T23:21:34.990Z,7.93
2022-09-07T23:24:03.623Z,13.40
2022-09-07T23:26:33.037Z,11.18
2022-09-07T23:29:02.990Z,8.57
2022-09-07T23:31:32.812Z,10.98
2022-09-07T23:34:03.670Z,11.70
2022-09-07T23:36:32.077Z,10.48
2022-09-07T23:39:01.174Z,8.10
2022-09-07T23:41:29.629Z,8.95
2022-09-07T23:43:57.743Z,9.45
2022-09-07T23:46:26.555Z,9.93
2022-09-07T23:48:54.544Z,8.40
2022-09-07T23:51:24.852Z,11.43
2022-09-07T23:53:53.429Z,9.23
2022-09-07T23:56:21.720Z,9.73
2022-09-07T23:58:49.769Z,8.93
